Time;durP1;ratioP1;P1;durP2;ratioP2;P2;SDS_P1;SDS_P2;PMS_P1;PMS_P2;Temp;Humidity;BMP_temperature;BMP_pressure;BME280_temperature;BME280_humidity;BME280_pressure;Samples;Min_cycle;Max_cycle;Signal;HPM_P1;HPM_P2
2021/10/31 00:00:23;;;;;;;25.30;16.50;;;8.30;99.90;;;;;;4962792;28;20667;-60
2021/10/31 00:02:49;;;;;;;30.73;17.60;;;8.20;99.90;;;;;;4956809;28;20525;-60
2021/10/31 00:05:15;;;;;;;28.50;16.87;;;8.20;99.90;;;;;;4959955;28;20239;-60
2021/10/31 00:07:40;;;;;;;26.43;16.83;;;8.20;99.90;;;;;;4959813;28;20648;-60
2021/10/31 00:10:07;;;;;;;24.80;16.37;;;8.20;99.90;;;;;;4951754;28;20233;-61
2021/10/31 00:12:33;;;;;;;25.10;17.07;;;8.20;99.90;;;;;;4957343;28;20175;-60
2021/10/31 00:14:59;;;;;;;27.93;16.03;;;8.20;99.90;;;;;;4962650;28;20421;-60
2021/10/31 00:17:25;;;;;;;25.00;14.43;;;8.20;99.90;;;;;;4967957;28;20171;-60
2021/10/31 00:19:50;;;;;;;24.03;14.47;;;8.20;99.90;;;;;;4967289;28;20435;-60
2021/10/31 00:22:16;;;;;;;22.73;14.63;;;8.20;99.90;;;;;;4968363;28;20555;-60
2021/10/31 00:24:42;;;;;;;22.57;13.77;;;8.30;99.90;;;;;;4973744;28;20180;-60
2021/10/31 00:27:08;;;;;;;26.13;16.13;;;8.30;99.90;;;;;;4968449;28;20174;-60
2021/10/31 00:29:33;;;;;;;26.10;15.50;;;8.30;99.90;;;;;;4971300;28;20244;-59
2021/10/31 00:31:59;;;;;;;22.00;14.27;;;8.20;99.90;;;;;;4968288;28;20166;-60
2021/10/31 00:34:25;;;;;;;25.63;14.80;;;8.20;99.90;;;;;;4959021;28;20182;-60
2021/10/31 00:36:50;;;;;;;20.13;13.73;;;8.20;99.90;;;;;;4950732;28;20177;-61
2021/10/31 00:39:16;;;;;;;21.57;14.10;;;8.20;99.90;;;;;;4953591;28;20581;-60
2021/10/31 00:41:42;;;;;;;19.77;12.90;;;8.10;99.90;;;;;;4955725;28;20178;-61
2021/10/31 00:44:07;;;;;;;18.70;12.20;;;8.10;99.90;;;;;;4959858;28;20522;-61
2021/10/31 00:46:33;;;;;;;15.60;11.53;;;8.10;99.90;;;;;;4959719;28;20701;-60
2021/10/31 00:48:59;;;;;;;23.47;11.57;;;8.10;99.90;;;;;;4960949;28;20208;-60
2021/10/31 00:51:26;;;;;;;19.03;11.67;;;8.00;99.90;;;;;;4963757;28;20171;-60
2021/10/31 00:53:54;;;;;;;19.30;12.40;;;8.00;99.90;;;;;;4961979;28;20182;-60
2021/10/31 00:56:22;;;;;;;20.97;11.87;;;8.00;99.90;;;;;;4961227;28;20806;-60
2021/10/31 00:58:48;;;;;;;19.73;13.10;;;8.00;99.90;;;;;;4959001;28;20780;-60
2021/10/31 01:01:13;;;;;;;30.30;13.30;;;8.10;99.90;;;;;;4977279;28;20979;-61
2021/10/31 01:03:40;;;;;;;22.37;12.40;;;8.10;99.90;;;;;;4958797;28;20194;-62
2021/10/31 01:06:26;;;;;;;25.13;13.87;;;8.10;99.90;;;;;;4951156;28;20546;-60
2021/10/31 01:09:15;;;;;;;22.13;12.30;;;8.10;99.90;;;;;;4918872;28;20569;-60
2021/10/31 01:11:58;;;;;;;21.53;13.93;;;8.10;99.90;;;;;;4958537;28;20439;-60
2021/10/31 01:14:32;;;;;;;19.67;14.10;;;8.20;99.90;;;;;;4959521;28;20884;-60
2021/10/31 01:17:18;;;;;;;20.57;14.10;;;8.20;99.90;;;;;;4964414;28;20422;-60
2021/10/31 01:20:17;;;;;;;20.87;13.90;;;8.20;99.90;;;;;;4963396;28;20510;-60
2021/10/31 01:23:07;;;;;;;22.70;14.53;;;8.20;99.90;;;;;;4966411;28;20956;-61
2021/10/31 01:25:51;;;;;;;20.87;12.67;;;8.20;99.90;;;;;;4964508;28;20426;-60
2021/10/31 01:28:43;;;;;;;22.93;13.27;;;8.20;99.90;;;;;;4965760;28;20457;-61
2021/10/31 01:31:17;;;;;;;21.80;13.80;;;8.20;99.90;;;;;;4957406;28;20842;-60
2021/10/31 01:33:45;;;;;;;18.30;12.40;;;8.20;99.90;;;;;;4974880;28;20409;-60
2021/10/31 01:36:55;;;;;;;19.03;11.67;;;8.20;99.90;;;;;;4968776;28;20551;-60
2021/10/31 01:39:27;;;;;;;16.13;11.23;;;8.30;99.90;;;;;;4944781;28;20508;-60
2021/10/31 01:42:30;;;;;;;15.87;11.63;;;8.30;99.90;;;;;;4957119;28;20866;-60
2021/10/31 01:45:16;;;;;;;19.73;11.20;;;8.30;99.90;;;;;;4962027;28;20463;-60
2021/10/31 01:47:48;;;;;;;19.87;12.90;;;8.40;99.90;;;;;;4967287;28;20437;-61
2021/10/31 01:50:29;;;;;;;18.23;12.23;;;8.40;99.90;;;;;;4958732;28;20538;-61
2021/10/31 01:53:02;;;;;;;23.30;13.27;;;8.40;99.90;;;;;;4960479;28;20452;-61
2021/10/31 01:55:42;;;;;;;21.77;14.30;;;8.40;99.90;;;;;;4953464;28;21185;-60
2021/10/31 01:58:11;;;;;;;23.67;13.80;;;8.40;99.90;;;;;;4958088;28;20428;-60
2021/10/31 02:00:41;;;;;;;25.63;14.33;;;8.40;99.90;;;;;;4967275;28;20433;-61
2021/10/31 02:03:09;;;;;;;24.73;15.00;;;8.40;99.90;;;;;;4968696;28;20424;-60
2021/10/31 02:05:37;;;;;;;22.93;14.40;;;8.40;99.90;;;;;;4972464;28;20448;-60
2021/10/31 02:08:06;;;;;;;20.80;13.97;;;8.40;99.90;;;;;;4971193;28;20420;-60
2021/10/31 02:10:33;;;;;;;23.83;14.70;;;8.40;99.90;;;;;;4954689;28;20461;-60
2021/10/31 02:13:01;;;;;;;22.30;13.53;;;8.40;99.90;;;;;;4958909;28;20472;-60
2021/10/31 02:15:28;;;;;;;23.10;13.80;;;8.40;99.90;;;;;;4954922;28;20438;-60
2021/10/31 02:17:55;;;;;;;20.87;13.17;;;8.40;99.90;;;;;;4962107;28;20516;-60
2021/10/31 02:20:22;;;;;;;21.83;14.80;;;8.40;99.90;;;;;;4958264;28;20433;-61
2021/10/31 02:22:53;;;;;;;25.23;13.90;;;8.40;99.90;;;;;;4954857;28;20791;-60
2021/10/31 02:25:20;;;;;;;21.80;14.67;;;8.40;99.90;;;;;;4956879;28;20446;-61
2021/10/31 02:27:46;;;;;;;20.80;13.40;;;8.40;99.90;;;;;;4956097;28;20484;-61
2021/10/31 02:30:12;;;;;;;23.63;13.70;;;8.50;99.90;;;;;;4956547;28;20462;-60
2021/10/31 02:32:38;;;;;;;22.13;13.07;;;8.50;99.90;;;;;;4956613;28;22266;-60
2021/10/31 02:35:08;;;;;;;19.13;13.13;;;8.50;99.90;;;;;;4958096;28;20467;-61
2021/10/31 02:37:37;;;;;;;20.93;13.40;;;8.40;99.90;;;;;;4958424;28;20178;-62
2021/10/31 02:40:04;;;;;;;18.13;12.40;;;8.40;99.90;;;;;;4978406;28;20457;-60
2021/10/31 02:42:30;;;;;;;18.53;12.70;;;8.40;99.90;;;;;;4955813;28;20802;-61
2021/10/31 02:44:56;;;;;;;19.10;12.10;;;8.40;99.90;;;;;;4955073;28;20445;-61
2021/10/31 02:47:44;;;;;;;19.30;12.03;;;8.40;99.90;;;;;;4954455;28;20186;-60
2021/10/31 02:50:14;;;;;;;15.33;10.87;;;8.40;99.90;;;;;;4953789;28;20477;-60
2021/10/31 02:52:43;;;;;;;15.10;11.30;;;8.40;99.90;;;;;;4955954;28;20429;-60
2021/10/31 02:55:21;;;;;;;20.13;11.20;;;8.40;99.90;;;;;;4956641;28;20939;-61
2021/10/31 02:58:07;;;;;;;16.40;10.73;;;8.40;99.90;;;;;;4955091;28;20517;-61
2021/10/31 03:00:37;;;;;;;15.37;10.53;;;8.30;99.90;;;;;;4955519;28;20426;-61
2021/10/31 03:03:05;;;;;;;18.80;11.00;;;8.40;99.90;;;;;;4970681;28;20984;-61
2021/10/31 03:05:31;;;;;;;21.97;11.27;;;8.30;99.90;;;;;;4969204;28;20425;-60
2021/10/31 03:07:57;;;;;;;18.40;10.77;;;8.30;99.90;;;;;;4976113;28;20445;-60
2021/10/31 03:10:23;;;;;;;15.00;10.30;;;8.30;99.90;;;;;;4960965;28;20565;-61
2021/10/31 03:12:49;;;;;;;16.70;10.00;;;8.20;99.90;;;;;;4952592;28;20433;-60
2021/10/31 03:15:16;;;;;;;15.40;11.33;;;8.10;99.90;;;;;;4954431;28;20653;-61
2021/10/31 03:17:41;;;;;;;15.87;10.57;;;8.10;99.90;;;;;;4956865;28;20182;-60
2021/10/31 03:20:08;;;;;;;16.33;10.33;;;8.10;99.90;;;;;;4952596;28;20515;-61
2021/10/31 03:22:34;;;;;;;15.90;10.27;;;8.10;99.90;;;;;;4952086;28;20182;-60
2021/10/31 03:25:00;;;;;;;14.67;9.80;;;8.10;99.90;;;;;;4950396;28;20448;-60
2021/10/31 03:27:26;;;;;;;14.63;9.50;;;8.10;99.90;;;;;;4954518;28;20440;-61
2021/10/31 03:29:52;;;;;;;16.60;9.97;;;8.10;99.90;;;;;;4954457;28;20210;-60
2021/10/31 03:32:19;;;;;;;13.20;10.00;;;8.10;99.90;;;;;;4957604;28;20445;-61
2021/10/31 03:34:44;;;;;;;15.77;10.67;;;8.10;99.90;;;;;;4963295;28;20618;-61
2021/10/31 03:37:10;;;;;;;15.60;9.70;;;8.10;99.90;;;;;;4962576;28;20438;-60
2021/10/31 03:39:36;;;;;;;13.70;9.40;;;8.10;99.90;;;;;;4961469;28;20202;-60
2021/10/31 03:42:02;;;;;;;14.23;9.30;;;8.10;99.90;;;;;;4965876;28;20178;-61
2021/10/31 03:44:29;;;;;;;20.83;10.70;;;8.10;99.90;;;;;;4955555;28;20183;-60
2021/10/31 03:46:55;;;;;;;16.63;9.40;;;8.20;99.90;;;;;;4956868;28;20433;-60
2021/10/31 03:49:21;;;;;;;15.17;8.23;;;8.20;99.90;;;;;;4949023;28;20535;-60
2021/10/31 03:51:47;;;;;;;13.00;8.60;;;8.30;99.90;;;;;;4953330;28;20244;-61
2021/10/31 03:54:13;;;;;;;11.43;8.23;;;8.30;99.90;;;;;;4954127;28;20439;-60
2021/10/31 03:56:39;;;;;;;14.50;8.67;;;8.30;99.90;;;;;;4965807;28;20224;-61
2021/10/31 03:59:04;;;;;;;12.23;8.90;;;8.30;99.90;;;;;;4958411;28;20489;-60
2021/10/31 04:01:32;;;;;;;12.10;7.90;;;8.30;99.90;;;;;;4962894;28;20221;-60
2021/10/31 04:03:59;;;;;;;25.00;9.67;;;8.30;99.90;;;;;;4965268;28;20162;-61
2021/10/31 04:06:25;;;;;;;13.80;9.23;;;8.30;99.90;;;;;;4960558;28;20445;-60
2021/10/31 04:08:51;;;;;;;13.23;8.70;;;8.20;99.90;;;;;;4956554;28;20473;-61
2021/10/31 04:11:20;;;;;;;12.57;9.03;;;8.20;99.90;;;;;;4952294;28;20210;-61
2021/10/31 04:13:45;;;;;;;12.27;8.30;;;8.10;99.90;;;;;;4951381;28;21464;-60
2021/10/31 04:16:11;;;;;;;15.57;9.43;;;8.10;99.90;;;;;;4961159;28;20429;-61
2021/10/31 04:18:37;;;;;;;13.57;9.60;;;8.00;99.90;;;;;;4962298;28;20740;-60
2021/10/31 04:21:02;;;;;;;14.70;9.20;;;8.00;99.90;;;;;;4959761;28;20178;-61
2021/10/31 04:23:30;;;;;;;12.87;8.83;;;7.90;99.90;;;;;;4968344;28;20185;-60
2021/10/31 04:25:56;;;;;;;49.67;10.50;;;7.90;99.90;;;;;;4964749;28;20180;-60
2021/10/31 04:28:23;;;;;;;80.73;12.00;;;7.90;99.90;;;;;;4964457;28;20977;-61
2021/10/31 04:30:49;;;;;;;17.70;8.97;;;7.80;99.90;;;;;;4959792;28;20619;-60
2021/10/31 04:33:15;;;;;;;38.30;10.10;;;7.90;99.90;;;;;;4959776;28;20976;-61
2021/10/31 04:35:40;;;;;;;78.23;11.33;;;7.80;99.90;;;;;;4966905;28;20174;-61
2021/10/31 04:38:11;;;;;;;53.27;11.40;;;7.80;99.90;;;;;;4967716;28;20197;-60
2021/10/31 04:40:39;;;;;;;49.30;11.37;;;7.70;99.90;;;;;;4957722;28;20659;-61
2021/10/31 04:43:10;;;;;;;25.70;11.40;;;7.70;99.90;;;;;;4955308;28;20441;-61
2021/10/31 04:45:37;;;;;;;19.33;10.87;;;7.70;99.90;;;;;;4952685;28;20448;-60
2021/10/31 04:48:03;;;;;;;15.07;9.87;;;7.70;99.90;;;;;;4956306;28;20442;-60
2021/10/31 04:50:28;;;;;;;14.20;9.20;;;7.60;99.90;;;;;;4973778;28;20487;-60
2021/10/31 04:52:54;;;;;;;13.43;9.80;;;7.70;99.90;;;;;;4954806;28;20667;-60
2021/10/31 04:55:20;;;;;;;12.93;8.27;;;7.60;99.90;;;;;;4960042;28;20593;-61
2021/10/31 04:57:45;;;;;;;15.90;9.83;;;7.60;99.90;;;;;;4961683;28;20171;-60
2021/10/31 05:00:12;;;;;;;12.00;8.53;;;7.60;99.90;;;;;;4959342;28;20205;-61
2021/10/31 05:02:38;;;;;;;10.73;8.10;;;7.60;99.90;;;;;;4950449;28;20677;-60
2021/10/31 05:05:04;;;;;;;18.07;8.10;;;7.60;99.90;;;;;;4950964;28;20493;-61
2021/10/31 05:07:30;;;;;;;22.33;8.00;;;7.50;99.90;;;;;;4955239;28;20507;-60
2021/10/31 05:09:55;;;;;;;17.57;7.37;;;7.50;99.90;;;;;;4965471;28;20853;-60
2021/10/31 05:12:25;;;;;;;11.10;7.60;;;7.50;99.90;;;;;;4960226;28;20178;-60
2021/10/31 05:14:51;;;;;;;8.73;6.67;;;7.40;99.90;;;;;;4966772;28;20257;-61
2021/10/31 05:17:18;;;;;;;23.87;7.40;;;7.50;99.90;;;;;;4956484;28;20432;-60
2021/10/31 05:19:43;;;;;;;32.47;8.60;;;7.40;99.90;;;;;;4955325;28;20540;-60
2021/10/31 05:22:09;;;;;;;54.77;9.27;;;7.40;99.90;;;;;;4950694;28;21036;-61
2021/10/31 05:24:35;;;;;;;14.77;7.40;;;7.30;99.90;;;;;;4957733;28;20186;-60
2021/10/31 05:27:00;;;;;;;32.60;8.17;;;7.30;99.90;;;;;;4959251;28;20722;-62
2021/10/31 05:29:26;;;;;;;15.93;7.10;;;7.30;99.90;;;;;;4972039;28;20817;-61
2021/10/31 05:31:51;;;;;;;10.70;7.20;;;7.20;99.90;;;;;;4957445;28;20174;-60
2021/10/31 05:34:17;;;;;;;19.23;8.03;;;7.30;99.90;;;;;;4964450;28;20217;-60
2021/10/31 05:36:42;;;;;;;24.07;7.27;;;7.20;99.90;;;;;;4958895;28;21255;-61
2021/10/31 05:39:08;;;;;;;26.43;7.30;;;7.20;99.90;;;;;;4958536;28;20208;-60
2021/10/31 05:41:34;;;;;;;36.10;6.90;;;7.10;99.90;;;;;;4957526;28;20178;-61
2021/10/31 05:44:00;;;;;;;61.30;7.67;;;7.10;99.90;;;;;;4975418;28;20245;-60
2021/10/31 05:46:26;;;;;;;32.23;7.00;;;7.10;99.90;;;;;;4964494;28;20179;-60
2021/10/31 05:48:52;;;;;;;11.90;6.10;;;7.10;99.90;;;;;;4962847;28;20217;-60
2021/10/31 05:51:18;;;;;;;38.17;9.80;;;7.10;99.90;;;;;;4972511;28;20461;-60
2021/10/31 05:53:44;;;;;;;40.53;8.77;;;7.10;99.90;;;;;;4970066;28;20182;-60
2021/10/31 05:56:11;;;;;;;18.90;6.97;;;7.00;99.90;;;;;;4975887;28;20566;-60
2021/10/31 05:58:37;;;;;;;29.27;7.27;;;7.00;99.90;;;;;;4956349;28;20209;-61
2021/10/31 06:01:03;;;;;;;79.77;9.27;;;7.00;99.90;;;;;;4958051;28;20444;-60
2021/10/31 06:03:29;;;;;;;21.10;7.50;;;7.00;99.90;;;;;;4965135;28;20837;-61
2021/10/31 06:05:55;;;;;;;29.20;8.13;;;7.00;99.90;;;;;;4968310;28;20273;-60
2021/10/31 06:08:21;;;;;;;15.50;7.43;;;7.10;99.90;;;;;;4963630;28;20473;-59
2021/10/31 06:10:47;;;;;;;19.33;5.90;;;7.10;99.90;;;;;;4954072;28;20466;-61
2021/10/31 06:13:13;;;;;;;34.13;6.27;;;7.10;99.90;;;;;;4960641;28;20181;-61
2021/10/31 06:15:40;;;;;;;6.40;5.50;;;7.00;99.90;;;;;;4954802;28;20433;-60
2021/10/31 06:18:06;;;;;;;11.80;5.67;;;7.00;99.90;;;;;;4954713;28;20171;-60
2021/10/31 06:20:35;;;;;;;28.07;6.47;;;7.00;99.90;;;;;;4967228;28;20444;-60
2021/10/31 06:23:00;;;;;;;25.97;6.20;;;7.00;99.90;;;;;;4967948;28;20190;-60
2021/10/31 06:25:28;;;;;;;28.93;7.20;;;7.00;99.90;;;;;;4954489;28;20534;-61
2021/10/31 06:27:54;;;;;;;36.97;6.97;;;7.00;99.90;;;;;;4950939;28;20718;-60
2021/10/31 06:30:20;;;;;;;26.47;6.33;;;7.00;99.90;;;;;;4960743;28;20470;-60
2021/10/31 06:32:46;;;;;;;46.83;7.57;;;6.90;99.90;;;;;;4966160;28;20186;-60
2021/10/31 06:35:12;;;;;;;30.17;8.43;;;6.90;99.90;;;;;;4964790;28;20682;-58
2021/10/31 06:37:37;;;;;;;32.83;8.87;;;7.00;99.90;;;;;;4965211;28;20190;-58
2021/10/31 06:40:05;;;;;;;45.60;7.10;;;7.00;99.90;;;;;;4959695;28;20556;-58
2021/10/31 06:42:31;;;;;;;57.67;6.60;;;6.90;99.90;;;;;;4978843;28;20181;-58
2021/10/31 06:44:57;;;;;;;43.47;6.50;;;6.90;99.90;;;;;;4961944;28;20436;-59
2021/10/31 06:47:23;;;;;;;17.17;5.80;;;6.90;99.90;;;;;;4953141;28;20197;-60
2021/10/31 06:49:52;;;;;;;17.47;6.53;;;6.90;99.90;;;;;;4955263;28;20206;-61
2021/10/31 06:52:18;;;;;;;15.70;5.80;;;6.90;99.90;;;;;;4964996;28;20966;-62
2021/10/31 06:54:44;;;;;;;12.37;6.67;;;6.90;99.90;;;;;;4953266;28;20454;-61
2021/10/31 06:57:10;;;;;;;10.50;6.90;;;7.00;99.90;;;;;;4969726;28;20956;-61
2021/10/31 06:59:36;;;;;;;15.43;6.73;;;7.00;99.90;;;;;;4973608;28;20205;-61
2021/10/31 07:02:02;;;;;;;16.50;8.37;;;7.10;99.90;;;;;;4956559;28;20515;-61
2021/10/31 07:04:29;;;;;;;13.13;9.10;;;7.10;99.90;;;;;;4960053;28;20468;-60
2021/10/31 07:06:55;;;;;;;22.07;11.90;;;7.10;99.90;;;;;;4956257;28;20182;-61
2021/10/31 07:09:21;;;;;;;11.80;8.70;;;7.10;99.90;;;;;;4948110;28;20477;-59
2021/10/31 07:11:46;;;;;;;20.83;9.23;;;7.20;99.90;;;;;;4951526;28;20178;-60
2021/10/31 07:14:12;;;;;;;15.90;8.37;;;7.20;99.90;;;;;;4950609;28;20182;-59
2021/10/31 07:16:38;;;;;;;19.40;9.80;;;7.20;99.90;;;;;;4947662;28;20186;-60
2021/10/31 07:19:03;;;;;;;23.60;9.90;;;7.20;99.90;;;;;;4949944;28;20198;-61
2021/10/31 07:21:29;;;;;;;27.43;9.90;;;7.30;99.90;;;;;;4949026;28;20193;-61
2021/10/31 07:23:56;;;;;;;18.53;7.97;;;7.30;99.90;;;;;;4954232;28;20661;-60
2021/10/31 07:26:21;;;;;;;31.83;8.20;;;7.30;99.90;;;;;;4949011;28;20195;-60
2021/10/31 07:28:47;;;;;;;39.00;8.80;;;7.30;99.90;;;;;;4966998;28;20487;-61
2021/10/31 07:31:14;;;;;;;12.90;6.93;;;7.40;99.90;;;;;;4967671;28;20702;-60
2021/10/31 07:33:40;;;;;;;26.13;6.90;;;7.40;99.90;;;;;;4948937;28;20192;-62
2021/10/31 07:36:06;;;;;;;17.57;6.50;;;7.50;99.90;;;;;;4948901;28;20430;-61
2021/10/31 07:38:33;;;;;;;19.93;6.73;;;7.60;99.90;;;;;;4952935;28;20202;-61
2021/10/31 07:40:58;;;;;;;8.17;6.40;;;7.60;99.90;;;;;;4956331;28;20236;-61
2021/10/31 07:43:24;;;;;;;16.47;5.90;;;7.70;99.90;;;;;;4960681;28;20445;-59
2021/10/31 07:45:49;;;;;;;21.87;7.40;;;7.70;99.90;;;;;;4957410;28;20195;-60
2021/10/31 07:48:15;;;;;;;15.80;6.90;;;7.80;99.90;;;;;;4949526;28;20268;-59
2021/10/31 07:50:41;;;;;;;10.13;6.13;;;7.80;99.90;;;;;;4948056;28;20214;-60
2021/10/31 07:53:11;;;;;;;9.57;6.80;;;7.90;99.90;;;;;;4953597;28;20265;-61
2021/10/31 07:55:38;;;;;;;14.33;6.20;;;7.90;99.90;;;;;;4945064;28;20429;-60
2021/10/31 07:58:05;;;;;;;9.47;6.97;;;7.90;99.90;;;;;;4948776;28;21059;-60
2021/10/31 08:00:32;;;;;;;9.57;6.70;;;8.00;99.90;;;;;;4946016;28;20465;-58
2021/10/31 08:02:58;;;;;;;12.97;6.10;;;8.00;99.90;;;;;;4949256;28;20470;-60
2021/10/31 08:05:24;;;;;;;9.03;6.60;;;8.10;99.90;;;;;;4948780;28;20985;-60
2021/10/31 08:07:51;;;;;;;8.90;6.30;;;8.20;99.90;;;;;;4960053;28;20280;-60
2021/10/31 08:10:18;;;;;;;8.13;5.93;;;8.20;99.90;;;;;;4968483;28;21544;-60
2021/10/31 08:12:43;;;;;;;7.50;6.20;;;8.20;99.90;;;;;;4950117;28;21030;-59
2021/10/31 08:15:09;;;;;;;9.10;7.03;;;8.30;99.90;;;;;;4950196;28;20531;-60
2021/10/31 08:17:35;;;;;;;11.60;7.93;;;8.30;99.90;;;;;;4946362;28;20182;-59
2021/10/31 08:20:01;;;;;;;9.37;6.90;;;8.40;99.90;;;;;;4949167;28;20464;-58
2021/10/31 08:22:27;;;;;;;8.43;6.00;;;8.40;99.90;;;;;;4953121;28;20181;-61
2021/10/31 08:24:53;;;;;;;12.83;7.80;;;8.50;99.90;;;;;;4951467;28;21149;-60
2021/10/31 08:27:18;;;;;;;8.73;7.17;;;8.50;99.90;;;;;;4953525;28;20190;-59
2021/10/31 08:29:46;;;;;;;9.83;7.20;;;8.50;99.90;;;;;;4958785;28;20221;-59
2021/10/31 08:32:12;;;;;;;10.87;7.40;;;8.60;99.90;;;;;;4949724;28;20325;-60
2021/10/31 08:34:38;;;;;;;12.60;7.97;;;8.60;99.90;;;;;;4955443;28;20438;-58
2021/10/31 08:37:04;;;;;;;12.00;8.23;;;8.70;99.90;;;;;;4960018;28;20434;-59
2021/10/31 08:39:30;;;;;;;21.13;9.57;;;8.80;99.90;;;;;;4958657;28;20306;-62
2021/10/31 08:41:56;;;;;;;10.70;6.80;;;8.90;99.90;;;;;;4958554;28;20441;-60
2021/10/31 08:44:23;;;;;;;8.90;7.13;;;9.00;99.90;;;;;;4957307;28;20215;-61
2021/10/31 08:46:50;;;;;;;10.60;5.93;;;9.10;99.90;;;;;;4943026;28;20454;-60
2021/10/31 08:49:17;;;;;;;6.37;5.23;;;9.20;99.90;;;;;;4943518;28;20462;-60
2021/10/31 08:51:43;;;;;;;5.40;4.23;;;9.30;99.90;;;;;;4940157;28;20432;-57
2021/10/31 08:54:09;;;;;;;6.70;5.37;;;9.40;99.90;;;;;;4946926;28;21001;-58
2021/10/31 08:56:35;;;;;;;7.20;4.60;;;9.50;99.90;;;;;;4944936;28;20178;-57
2021/10/31 08:59:01;;;;;;;5.40;4.40;;;9.60;99.90;;;;;;4940121;28;20484;-60
2021/10/31 09:01:27;;;;;;;5.73;4.40;;;9.70;99.90;;;;;;4951978;28;20429;-60
2021/10/31 09:03:53;;;;;;;4.00;3.60;;;9.80;99.90;;;;;;4939863;28;20434;-57
2021/10/31 09:06:22;;;;;;;4.70;4.23;;;10.00;99.90;;;;;;4960352;28;20452;-57
2021/10/31 09:08:47;;;;;;;4.37;3.97;;;10.10;99.90;;;;;;4946481;28;20556;-58
2021/10/31 09:11:13;;;;;;;4.90;3.80;;;10.30;99.90;;;;;;4954089;28;20456;-60
2021/10/31 09:13:39;;;;;;;5.80;3.80;;;10.50;99.90;;;;;;4954141;28;20174;-60
2021/10/31 09:16:05;;;;;;;5.03;4.00;;;10.60;99.90;;;;;;4949464;28;20466;-60
2021/10/31 09:18:32;;;;;;;4.93;4.30;;;10.70;99.90;;;;;;4943413;28;20241;-60
2021/10/31 09:20:58;;;;;;;5.23;4.70;;;10.80;99.90;;;;;;4946603;28;20588;-61
2021/10/31 09:23:24;;;;;;;5.33;4.83;;;10.90;99.90;;;;;;4945310;28;20516;-61
2021/10/31 09:25:50;;;;;;;7.83;6.40;;;10.90;99.90;;;;;;4946038;28;20198;-60
2021/10/31 09:28:16;;;;;;;6.57;4.77;;;11.00;99.90;;;;;;4943628;28;20465;-61
2021/10/31 09:30:43;;;;;;;7.87;6.20;;;11.10;99.90;;;;;;4958638;28;20462;-61
2021/10/31 09:33:11;;;;;;;12.63;5.90;;;11.20;99.90;;;;;;4961887;28;20453;-60
2021/10/31 09:35:47;;;;;;;8.10;5.97;;;11.30;99.90;;;;;;4945265;28;20525;-60
2021/10/31 09:38:15;;;;;;;6.63;5.63;;;11.50;99.90;;;;;;4952389;28;20440;-61
2021/10/31 09:40:41;;;;;;;6.03;5.43;;;11.60;99.90;;;;;;4944934;28;20687;-61
2021/10/31 09:43:07;;;;;;;10.73;6.00;;;11.70;99.90;;;;;;4950309;28;20794;-56
2021/10/31 09:45:35;;;;;;;8.93;6.07;;;11.80;99.90;;;;;;4952490;28;20178;-60
2021/10/31 09:48:06;;;;;;;11.00;6.10;;;11.90;99.90;;;;;;4950478;28;20186;-61
2021/10/31 09:50:35;;;;;;;7.43;5.30;;;12.00;99.90;;;;;;4954598;28;20489;-60
2021/10/31 09:53:01;;;;;;;5.30;4.80;;;12.10;99.90;;;;;;4947855;28;20461;-60
2021/10/31 09:55:28;;;;;;;5.20;4.70;;;12.30;99.90;;;;;;4945815;28;20536;-60
2021/10/31 09:57:53;;;;;;;5.93;4.47;;;12.40;99.90;;;;;;4961989;28;20437;-60
2021/10/31 10:00:31;;;;;;;6.00;4.40;;;12.50;99.90;;;;;;4956153;28;20434;-60
2021/10/31 10:05:28;;;;;;;5.07;3.93;;;12.80;99.90;;;;;;4947210;28;20604;-61
2021/10/31 10:08:17;;;;;;;4.80;4.03;;;13.00;99.90;;;;;;4962779;28;20938;-60
2021/10/31 10:10:47;;;;;;;5.13;3.87;;;13.20;99.90;;;;;;4948232;28;20460;-61
2021/10/31 10:13:30;;;;;;;8.17;3.80;;;13.30;99.90;;;;;;4949468;28;20438;-60
2021/10/31 10:16:30;;;;;;;6.00;3.60;;;13.50;99.90;;;;;;4962542;28;20441;-60
2021/10/31 10:18:57;;;;;;;6.10;4.37;;;13.60;99.90;;;;;;4963045;28;20556;-61
2021/10/31 10:21:25;;;;;;;4.07;3.40;;;13.70;99.90;;;;;;4948081;28;20436;-61
2021/10/31 10:23:55;;;;;;;3.70;3.40;;;13.80;99.90;;;;;;4949392;28;20445;-61
2021/10/31 10:26:34;;;;;;;3.73;3.43;;;13.90;99.90;;;;;;4961597;28;20478;-59
2021/10/31 10:29:24;;;;;;;4.27;3.47;;;14.00;99.90;;;;;;4949142;28;20963;-61
2021/10/31 10:32:01;;;;;;;4.77;3.73;;;14.10;99.90;;;;;;4949463;28;20443;-61
2021/10/31 10:34:44;;;;;;;6.30;3.90;;;14.20;99.90;;;;;;4960912;28;20515;-64
2021/10/31 10:37:13;;;;;;;4.47;3.50;;;14.40;99.90;;;;;;4955603;28;20942;-61
2021/10/31 10:39:40;;;;;;;3.47;2.87;;;14.60;99.90;;;;;;4955299;28;20593;-61
2021/10/31 10:42:06;;;;;;;3.57;3.03;;;14.80;99.90;;;;;;4960836;28;20958;-61
2021/10/31 10:44:38;;;;;;;3.23;2.90;;;14.90;99.90;;;;;;4957135;28;20436;-61
2021/10/31 10:47:04;;;;;;;2.80;2.60;;;15.00;99.90;;;;;;4962042;28;20437;-61
2021/10/31 10:49:34;;;;;;;2.97;2.73;;;15.10;99.90;;;;;;4948510;28;20549;-61
2021/10/31 10:52:22;;;;;;;4.63;2.83;;;15.30;99.90;;;;;;4949088;28;20438;-60
2021/10/31 10:54:55;;;;;;;3.10;2.60;;;15.50;99.90;;;;;;4954993;28;20441;-61
2021/10/31 10:57:22;;;;;;;3.00;2.70;;;15.70;99.60;;;;;;4954457;28;20425;-60
2021/10/31 10:59:53;;;;;;;2.73;2.53;;;16.00;99.10;;;;;;4951120;28;20463;-61
2021/10/31 11:02:21;;;;;;;3.20;2.87;;;16.30;97.50;;;;;;4972384;28;20451;-61
2021/10/31 11:04:52;;;;;;;2.73;2.30;;;16.70;96.50;;;;;;4954438;28;20444;-61
2021/10/31 11:07:26;;;;;;;3.17;2.20;;;17.10;93.50;;;;;;4955639;28;20432;-61
2021/10/31 11:09:52;;;;;;;2.60;2.40;;;17.50;90.00;;;;;;4956346;28;20469;-59
2021/10/31 11:12:29;;;;;;;2.50;2.30;;;17.90;79.00;;;;;;4949711;28;20487;-60
2021/10/31 11:14:58;;;;;;;2.60;2.00;;;18.20;72.20;;;;;;4958830;28;20241;-60
2021/10/31 11:17:24;;;;;;;2.50;2.17;;;18.60;69.20;;;;;;4950983;28;20437;-60
2021/10/31 11:19:53;;;;;;;1.77;1.67;;;18.90;68.50;;;;;;4948619;28;20939;-59
2021/10/31 11:22:21;;;;;;;4.33;2.63;;;19.30;65.00;;;;;;4948271;28;20516;-59
2021/10/31 11:24:48;;;;;;;2.70;1.90;;;19.50;64.60;;;;;;4948159;28;20529;-58
2021/10/31 11:27:19;;;;;;;2.10;1.90;;;19.70;64.60;;;;;;4946615;28;20557;-58
2021/10/31 11:29:46;;;;;;;7.13;1.87;;;20.00;61.80;;;;;;4948895;28;20469;-58
2021/10/31 11:32:13;;;;;;;1.90;1.63;;;20.30;59.60;;;;;;4947422;28;20512;-61
2021/10/31 11:34:51;;;;;;;1.50;1.40;;;20.50;56.00;;;;;;4944991;28;20438;-61
2021/10/31 11:37:20;;;;;;;2.20;2.00;;;20.80;56.80;;;;;;4946971;28;20918;-62
2021/10/31 11:39:47;;;;;;;2.10;1.90;;;21.30;55.70;;;;;;4959335;28;20900;-62
2021/10/31 11:42:16;;;;;;;2.23;1.73;;;21.80;54.60;;;;;;4946408;28;20440;-64
2021/10/31 11:45:13;;;;;;;1.57;1.47;;;22.40;52.80;;;;;;4948176;28;20438;-62
2021/10/31 11:47:41;;;;;;;2.20;1.63;;;22.90;51.30;;;;;;4947493;28;20319;-62
2021/10/31 11:50:22;;;;;;;1.70;1.60;;;23.40;50.00;;;;;;4965422;28;20220;-62
2021/10/31 11:52:50;;;;;;;1.60;1.50;;;23.70;47.60;;;;;;4962376;28;20630;-62
2021/10/31 11:55:25;;;;;;;1.40;1.25;;;24.00;47.40;;;;;;4948840;28;20690;-62
2021/10/31 11:58:01;;;;;;;2.65;1.52;;;24.30;46.10;;;;;;4948584;28;20937;-59
2021/10/31 12:00:27;;;;;;;1.58;1.48;;;24.40;46.00;;;;;;4958478;28;20224;-60
2021/10/31 12:03:03;;;;;;;3.17;1.45;;;24.60;45.80;;;;;;4948053;28;20564;-60
2021/10/31 12:05:41;;;;;;;1.75;1.20;;;25.00;44.90;;;;;;4943558;28;20188;-61
2021/10/31 12:08:09;;;;;;;1.30;1.20;;;25.30;45.10;;;;;;4947422;28;20410;-63
2021/10/31 12:10:35;;;;;;;1.20;1.10;;;25.60;44.10;;;;;;4943494;28;20700;-59
2021/10/31 12:13:19;;;;;;;1.45;1.35;;;26.00;43.30;;;;;;4945283;28;20187;-59
2021/10/31 12:16:13;;;;;;;1.58;1.48;;;26.30;42.80;;;;;;4946538;28;20182;-60
2021/10/31 12:18:56;;;;;;;3.78;1.25;;;26.60;41.50;;;;;;4956034;28;20215;-60
2021/10/31 12:21:30;;;;;;;1.48;1.33;;;26.70;40.80;;;;;;4955490;28;20178;-59
2021/10/31 12:24:00;;;;;;;2.22;1.23;;;26.70;41.00;;;;;;4954429;28;20179;-60
2021/10/31 12:26:32;;;;;;;1.70;1.15;;;26.60;41.10;;;;;;4948390;28;23293;-61
2021/10/31 12:29:13;;;;;;;1.10;1.00;;;26.30;40.80;;;;;;4957882;28;20207;-61
2021/10/31 12:31:50;;;;;;;1.20;1.10;;;26.20;40.80;;;;;;4954661;28;20824;-63
2021/10/31 12:34:18;;;;;;;1.30;1.20;;;26.00;40.80;;;;;;4954532;28;20194;-62
2021/10/31 12:36:48;;;;;;;1.48;1.38;;;25.10;41.50;;;;;;4952994;28;20493;-61
2021/10/31 12:39:26;;;;;;;2.60;1.38;;;24.10;42.90;;;;;;4954445;28;20218;-61
2021/10/31 12:42:11;;;;;;;1.13;1.10;;;22.90;44.50;;;;;;4949190;28;20269;-61
2021/10/31 12:44:38;;;;;;;1.30;1.20;;;22.00;45.00;;;;;;4956547;28;20676;-61
2021/10/31 12:47:07;;;;;;;0.93;0.90;;;21.30;46.10;;;;;;4959693;28;20174;-61
2021/10/31 12:49:33;;;;;;;1.33;1.10;;;20.70;47.50;;;;;;4951533;28;20202;-62
2021/10/31 12:52:02;;;;;;;1.10;1.10;;;20.40;48.30;;;;;;4957647;28;20428;-60
2021/10/31 12:54:31;;;;;;;1.53;1.40;;;20.10;48.10;;;;;;4954280;28;20522;-61
2021/10/31 12:56:57;;;;;;;1.20;1.00;;;20.00;48.80;;;;;;4948439;28;20588;-61